首页
METAR-TAF:

METAR-TAF

机场 :

杜阿拉国际机场

杜阿拉, 喀麦隆

纬度: 04-00N, 经度: 009-44E, 海拔: 10米

当前天气观测

该预报发布于43分钟前的09:00 UTC
风速3节,风向多变
温度 26°C
湿度 89%
气压 1014 hPa
能见度10公里或以上
散云层高于400英尺
多云层高于1300英尺
少量云层高于1600英尺, 积雨云.
雷暴

METAR: FKKD 160900Z VRB03KT 9999 TS SCT004 BKN013 FEW016CB 26/24 Q1014 TEMPO 3500 TSRADZ

时间: 10:43 (09:43 UTC)

预报

该预报发布于4小时和43分钟前的05:00 UTC
预报有效从16日的 06点(UTC)到 17日的 12点(UTC)
风速4节,风向多变
能見度: 8000
少量云层高于600英尺
多云层高于1300英尺
少量云层高于1600英尺, 积雨云.
雷暴
几率 30%
从 16日的 06点(UTC)到 16日的 09点(UTC)
能見度: 4000
雷暴, 雨, 毛毛雨
成为
从 16日的 08点(UTC)到 16日的 10点(UTC)
短暂存在
从 16日的 14点(UTC)到 16日的 20点(UTC)
能見度: 3000
雷暴, 雨, 毛毛雨,

TAF: FKKD 160500Z 1606/1712 VRB04KT 8000 TS FEW006 BKN013 FEW016CB PROB30 1606/1609 4000 TSRADZ BECMG 1608/1610 NSW TEMPO 1614/1620 3000 TSRADZ

超过4000个机场的气象观测和天气预报(METAR&TAF报告)。

可查询的气象台以黄色和红色小点在地图上表示。

将鼠标移到小点上方,可查看气象台名称。

然后点击查看天气观测和预报。

如需切换地图:点击带黑十字的绿色按钮放大地图;点击带横线的绿色按钮缩小地图;或者点击绿色箭头查看邻近地区的地图。


METAR-TAF: